Terminal Aerodrome Forecast
Issued by NWS

Home | Current Version | Previous Version | Graphics & Text | Print | Product List | Glossary On
Versions: 1 2 3 4 5 6 7 8 9 10 11 12 13 14 15 16 17 18 19 20 21 22 23 24 25 26 27 28 29 30 31 32 33
000
FTUS43 KLOT 261739
TAFORD
TAF
KORD 261739Z 2618/2724 20007KT P6SM SCT015 BKN024 OVC040
      TEMPO 2618/2622 BKN015
     FM270400 25005KT 5SM BR OVC009
     FM270900 31005KT 3SM BR SCT004 OVC007
     FM271500 04006KT P6SM OVC010
     FM271800 05006KT P6SM SCT010 OVC100
      TEMPO 2720/2724 4SM -RA BKN010=

USA.gov is the U.S. government's official web portal to all federal, state and local government web resources and services.